createdAt,value
2023-03-12T00:07:44.545Z,13.10
2023-03-12T00:22:48.996Z,12.80
2023-03-12T00:37:53.504Z,13.10
2023-03-12T00:52:57.903Z,13.50
2023-03-12T01:08:02.397Z,13.50
2023-03-12T01:23:06.924Z,12.90
2023-03-12T01:38:15.140Z,13.00
2023-03-12T01:53:19.730Z,12.40
2023-03-12T02:08:25.455Z,13.10
2023-03-12T02:23:34.590Z,12.90
2023-03-12T02:38:43.985Z,12.70
2023-03-12T02:53:54.598Z,12.90
2023-03-12T03:09:00.065Z,12.50
2023-03-12T03:24:05.461Z,12.60
2023-03-12T03:39:10.134Z,12.60
2023-03-12T03:54:15.150Z,12.40
2023-03-12T04:09:21.210Z,12.30
2023-03-12T04:24:25.867Z,12.30
2023-03-12T04:39:30.443Z,12.20
2023-03-12T04:54:36.009Z,12.00
2023-03-12T05:09:40.503Z,12.50
2023-03-12T05:24:44.885Z,12.40
2023-03-12T05:39:49.373Z,12.40
2023-03-12T05:54:55.394Z,12.60
2023-03-12T06:10:00.827Z,12.90
2023-03-12T06:25:06.395Z,13.00
2023-03-12T06:40:13.782Z,12.90
2023-03-12T06:55:18.365Z,12.80
2023-03-12T07:10:23.076Z,12.90
2023-03-12T07:25:27.754Z,12.70
2023-03-12T07:40:32.348Z,13.50
2023-03-12T07:55:36.784Z,13.00
2023-03-12T08:10:41.290Z,13.10
2023-03-12T08:25:48.193Z,13.20
2023-03-12T08:40:58.254Z,13.20
2023-03-12T08:56:03.825Z,13.90
2023-03-12T09:11:09.583Z,13.20
2023-03-12T09:26:14.971Z,13.80
2023-03-12T09:41:22.201Z,13.30
2023-03-12T09:56:28.321Z,13.70
2023-03-12T10:11:45.195Z,14.10
2023-03-12T10:26:52.258Z,14.00
2023-03-12T10:41:57.691Z,14.40
2023-03-12T10:57:02.781Z,14.70
2023-03-12T11:12:24.685Z,14.40
2023-03-12T11:27:42.761Z,14.60
2023-03-12T11:43:00.854Z,14.60
2023-03-12T11:58:21.856Z,14.80
2023-03-12T12:13:32.126Z,15.10
2023-03-12T12:28:55.449Z,15.00
2023-03-12T12:44:03.478Z,15.50
2023-03-12T12:59:30.546Z,15.70
2023-03-12T13:14:41.193Z,15.80
2023-03-12T13:29:46.660Z,15.70
2023-03-12T13:44:52.096Z,16.10
2023-03-12T13:59:58.582Z,16.40
2023-03-12T14:15:16.281Z,16.40
2023-03-12T14:30:24.973Z,16.90
2023-03-12T14:45:30.000Z,16.90
2023-03-12T15:00:35.155Z,18.70
2023-03-12T15:15:43.222Z,19.30
2023-03-12T15:30:47.737Z,18.70
2023-03-12T15:46:01.298Z,17.40
2023-03-12T16:01:11.149Z,18.10
2023-03-12T16:16:16.544Z,17.10
2023-03-12T16:31:21.124Z,16.30
2023-03-12T16:46:28.493Z,16.40
2023-03-12T17:01:33.298Z,16.00
2023-03-12T17:16:37.868Z,16.20
2023-03-12T17:31:42.349Z,16.30
2023-03-12T17:46:58.495Z,16.20
2023-03-12T18:02:04.039Z,16.20
2023-03-12T18:17:08.491Z,16.20
2023-03-12T18:32:13.592Z,16.30
2023-03-12T18:47:18.114Z,16.30
2023-03-12T19:02:22.589Z,16.30
2023-03-12T19:17:28.531Z,16.30
2023-03-12T19:32:42.518Z,16.40
2023-03-12T19:47:49.749Z,16.00
2023-03-12T20:02:54.424Z,15.80
2023-03-12T20:17:59.317Z,15.80
2023-03-12T20:33:05.724Z,15.70
2023-03-12T20:48:11.872Z,15.90
2023-03-12T21:03:16.858Z,15.60
2023-03-12T21:18:21.337Z,15.70
2023-03-12T21:33:26.016Z,15.40
2023-03-12T21:48:30.497Z,15.40
2023-03-12T22:03:35.095Z,15.30
2023-03-12T22:18:41.333Z,15.30
2023-03-12T22:33:46.263Z,15.40
2023-03-12T22:48:55.227Z,15.40
2023-03-12T23:03:59.785Z,15.50
2023-03-12T23:19:04.292Z,15.50
2023-03-12T23:34:09.993Z,15.80
2023-03-12T23:49:14.544Z,15.70
